CheckWX is a tool to help pilots better visualize weather data.  It is not intended as a substitute for an official pre-flight weather briefing.

21:10:28 UTC

GQPZ METAR
Tazadit Airport
Zouérate, Mauritania
Current

3 hours ago

GQPZ 231800Z 06014KT 3500 BLSA NSC 27/M07 Q1020
Observed
Feb-23 @ 18:00 UTC
Wind
  • 060° at 14 KTS
Visibility
3,492 meters
Flight Rules
IFR
Conditions
Blowing Sand
Cloud Levels
  • Clear skies
Temperature
27°C / 81°F
Dewpoint
-7°C / 19°F
Humidity
10%
Altimeter
30.12" Hg
Pressure
1019.92 hPa
Previous

6 hours ago

GQPZ 231500Z 06014KT 3500 BLSA NSC 28/M06 Q1021
Observed
Feb-23 @ 15:00 UTC
Wind
  • 060° at 14 KTS
Visibility
3,492 meters
Flight Rules
IFR
Conditions
Blowing Sand
Cloud Levels
  • Clear skies
Temperature
28°C / 82°F
Dewpoint
-6°C / 21°F
Humidity
10%
Altimeter
30.15" Hg
Pressure
1020.92 hPa
Previous

9 hours ago

GQPZ 231200Z 10016KT 4000 BLSA NSC 25/M08 Q1023
Observed
Feb-23 @ 12:00 UTC
Wind
  • 100° at 16 KTS
Visibility
4,007 meters
Flight Rules
IFR
Conditions
Blowing Sand
Cloud Levels
  • Clear skies
Temperature
25°C / 77°F
Dewpoint
-8°C / 18°F
Humidity
11%
Altimeter
30.21" Hg
Pressure
1022.92 hPa